Time;durP1;ratioP1;P1;durP2;ratioP2;P2;SDS_P1;SDS_P2;PMS_P1;PMS_P2;Temp;Humidity;BMP_temperature;BMP_pressure;BME280_temperature;BME280_humidity;BME280_pressure;Samples;Min_cycle;Max_cycle;Signal;HPM_P1;HPM_P2
2021/04/02 00:01:54;;;;;;;7.97;5.03;;;7.90;99.90;;;;;;5110100;28;20215;-67
2021/04/02 00:04:20;;;;;;;12.03;5.30;;;7.80;99.90;;;;;;5106214;28;20197;-67
2021/04/02 00:06:47;;;;;;;7.17;4.67;;;7.70;99.90;;;;;;5107049;28;20205;-67
2021/04/02 00:09:13;;;;;;;8.53;5.07;;;7.70;99.90;;;;;;5106409;28;20587;-67
2021/04/02 00:11:41;;;;;;;9.97;5.80;;;7.60;99.90;;;;;;5106709;28;20257;-67
2021/04/02 00:14:09;;;;;;;9.37;5.60;;;7.60;99.90;;;;;;5110839;28;20228;-67
2021/04/02 00:16:36;;;;;;;7.50;4.77;;;7.50;99.90;;;;;;5114534;28;20254;-67
2021/04/02 00:19:02;;;;;;;8.07;4.67;;;7.50;99.90;;;;;;5110258;28;20565;-67
2021/04/02 00:21:29;;;;;;;6.43;4.27;;;7.40;99.90;;;;;;5114408;28;20209;-67
2021/04/02 00:23:55;;;;;;;6.47;4.13;;;7.30;99.90;;;;;;5100920;28;20204;-67
2021/04/02 00:26:23;;;;;;;7.70;4.80;;;7.30;99.90;;;;;;5113006;28;20193;-67
2021/04/02 00:28:51;;;;;;;7.17;4.87;;;7.30;99.90;;;;;;5103005;28;20209;-67
2021/04/02 00:31:19;;;;;;;7.83;4.73;;;7.30;99.90;;;;;;5098244;28;20659;-67
2021/04/02 00:33:45;;;;;;;8.00;5.30;;;7.10;99.90;;;;;;5103933;28;20221;-67
2021/04/02 00:36:12;;;;;;;8.20;4.90;;;7.20;99.90;;;;;;5109337;28;20220;-67
2021/04/02 00:38:38;;;;;;;7.47;4.67;;;7.10;99.90;;;;;;5102343;28;20198;-67
2021/04/02 00:41:07;;;;;;;8.80;5.50;;;7.20;99.90;;;;;;5101141;28;20452;-66
2021/04/02 00:43:36;;;;;;;9.00;5.40;;;7.20;99.90;;;;;;5111115;28;20251;-66
2021/04/02 00:46:03;;;;;;;8.67;5.17;;;7.10;99.90;;;;;;5104793;28;20201;-67
2021/04/02 00:48:30;;;;;;;8.27;5.03;;;7.10;99.90;;;;;;5101184;28;20552;-67
2021/04/02 00:50:59;;;;;;;8.03;5.20;;;7.00;99.90;;;;;;5098857;28;20216;-67
2021/04/02 00:53:27;;;;;;;7.20;5.03;;;7.00;99.90;;;;;;5099178;28;20218;-67
2021/04/02 00:55:55;;;;;;;8.30;4.87;;;7.00;99.90;;;;;;5106324;28;20190;-66
2021/04/02 00:58:24;;;;;;;9.13;5.13;;;6.80;99.90;;;;;;5100615;28;20197;-67
2021/04/02 01:00:51;;;;;;;7.10;5.13;;;6.80;99.90;;;;;;5101563;28;20296;-73
2021/04/02 01:03:19;;;;;;;7.17;4.93;;;6.80;99.90;;;;;;5099349;28;20254;-72
2021/04/02 01:05:48;;;;;;;7.10;4.80;;;6.70;99.90;;;;;;5102316;28;20211;-72
2021/04/02 01:08:18;;;;;;;6.37;4.40;;;6.70;99.90;;;;;;5102057;28;20612;-72
2021/04/02 01:10:45;;;;;;;7.43;4.83;;;6.60;99.90;;;;;;5109649;28;20212;-72
2021/04/02 01:13:14;;;;;;;9.20;5.50;;;6.60;99.90;;;;;;5104029;28;20213;-72
2021/04/02 01:15:43;;;;;;;9.20;5.57;;;6.50;99.90;;;;;;5095085;28;20198;-72
2021/04/02 01:18:15;;;;;;;11.53;6.70;;;6.40;99.90;;;;;;5112105;28;20205;-72
2021/04/02 01:20:42;;;;;;;9.00;5.60;;;6.40;99.90;;;;;;5099629;28;20234;-72
2021/04/02 01:23:13;;;;;;;7.77;4.90;;;6.50;99.90;;;;;;5106255;28;20196;-72
2021/04/02 01:25:48;;;;;;;7.20;4.90;;;6.50;99.90;;;;;;5110488;28;20249;-72
2021/04/02 01:28:45;;;;;;;7.83;5.20;;;6.60;99.90;;;;;;5102683;28;20292;-72
2021/04/02 01:31:13;;;;;;;7.67;4.87;;;6.50;99.90;;;;;;5102328;28;20211;-72
2021/04/02 01:33:40;;;;;;;6.07;4.63;;;6.50;99.90;;;;;;5103731;28;20216;-72
2021/04/02 01:36:08;;;;;;;6.90;5.00;;;6.40;99.90;;;;;;5110544;28;20215;-72
2021/04/02 01:38:37;;;;;;;6.80;4.60;;;6.40;99.90;;;;;;5095762;28;20206;-72
2021/04/02 01:41:06;;;;;;;5.97;4.40;;;6.30;99.90;;;;;;5105741;28;20622;-72
2021/04/02 01:43:35;;;;;;;6.47;4.53;;;6.40;99.90;;;;;;5106488;28;20192;-72
2021/04/02 01:46:03;;;;;;;6.37;4.60;;;6.40;99.90;;;;;;5110803;28;20197;-72
2021/04/02 01:48:31;;;;;;;7.50;5.00;;;6.40;99.90;;;;;;5109961;28;20562;-72
2021/04/02 01:50:59;;;;;;;6.67;4.80;;;6.50;99.90;;;;;;5099790;28;20206;-72
2021/04/02 01:53:29;;;;;;;5.53;4.53;;;6.50;99.90;;;;;;5098341;28;20239;-72
2021/04/02 01:55:57;;;;;;;5.80;4.43;;;6.30;99.90;;;;;;5106778;28;20197;-72
2021/04/02 01:58:24;;;;;;;6.60;4.60;;;6.30;99.90;;;;;;5102758;28;20203;-72
2021/04/02 02:00:55;;;;;;;5.87;4.10;;;6.30;99.90;;;;;;5107086;28;20204;-72
2021/04/02 02:03:23;;;;;;;5.33;4.17;;;6.20;99.90;;;;;;5110199;28;20208;-72
2021/04/02 02:05:53;;;;;;;4.60;4.03;;;6.20;99.90;;;;;;5103611;28;20198;-72
2021/04/02 02:08:21;;;;;;;5.57;4.17;;;6.20;99.90;;;;;;5111195;28;20634;-72
2021/04/02 02:10:50;;;;;;;5.20;4.00;;;5.90;99.90;;;;;;5105263;28;20205;-72
2021/04/02 02:13:18;;;;;;;5.97;4.27;;;5.80;99.90;;;;;;5103673;28;20224;-72
2021/04/02 02:15:46;;;;;;;6.47;4.53;;;5.90;99.90;;;;;;5098455;28;20258;-72
2021/04/02 02:18:14;;;;;;;4.97;4.10;;;6.00;99.90;;;;;;5107425;28;20560;-72
2021/04/02 02:20:43;;;;;;;4.97;4.17;;;6.00;99.90;;;;;;5102306;28;20288;-72
2021/04/02 02:23:10;;;;;;;5.33;4.20;;;6.00;99.90;;;;;;5103532;28;20193;-72
2021/04/02 02:25:37;;;;;;;4.50;3.97;;;6.00;99.90;;;;;;5107916;28;20208;-72
2021/04/02 02:28:04;;;;;;;4.47;4.07;;;6.20;99.90;;;;;;5106511;28;20677;-73
2021/04/02 02:30:33;;;;;;;4.60;3.80;;;6.20;99.90;;;;;;5105179;28;20224;-72
2021/04/02 02:33:00;;;;;;;4.97;3.93;;;6.00;99.90;;;;;;5103911;28;20220;-72
2021/04/02 02:35:26;;;;;;;5.73;4.00;;;6.00;99.90;;;;;;5105415;28;20678;-72
2021/04/02 02:37:56;;;;;;;4.57;3.73;;;6.10;99.90;;;;;;5105359;28;20205;-74
2021/04/02 02:40:26;;;;;;;4.40;3.93;;;6.20;99.90;;;;;;5104530;28;20569;-72
2021/04/02 02:42:54;;;;;;;4.23;3.70;;;6.20;99.90;;;;;;5099521;28;20201;-72
2021/04/02 02:45:21;;;;;;;5.43;3.53;;;6.30;99.90;;;;;;5109798;28;20205;-73
2021/04/02 02:47:48;;;;;;;4.67;3.57;;;6.30;99.90;;;;;;5103182;28;20207;-72
2021/04/02 02:50:18;;;;;;;3.83;3.50;;;6.30;99.90;;;;;;5112259;28;20686;-73
2021/04/02 02:52:47;;;;;;;3.97;3.57;;;6.20;99.90;;;;;;5108650;28;20231;-72
2021/04/02 02:55:16;;;;;;;4.33;3.90;;;6.20;99.90;;;;;;5107830;28;20210;-72
2021/04/02 02:57:45;;;;;;;3.93;3.53;;;6.20;99.90;;;;;;5112105;28;20286;-73
2021/04/02 03:00:14;;;;;;;6.40;3.90;;;6.20;99.90;;;;;;5108713;28;20200;-73
2021/04/02 03:02:43;;;;;;;4.33;3.83;;;6.20;99.90;;;;;;5104520;28;20246;-72
2021/04/02 03:05:11;;;;;;;4.43;3.83;;;6.10;99.90;;;;;;5109412;28;20201;-72
2021/04/02 03:07:41;;;;;;;3.87;3.50;;;6.10;99.90;;;;;;5110336;28;20266;-72
2021/04/02 03:10:10;;;;;;;5.57;3.57;;;6.00;99.90;;;;;;5109223;28;20201;-72
2021/04/02 03:12:41;;;;;;;3.90;3.40;;;6.00;99.90;;;;;;5109348;28;20197;-72
2021/04/02 03:15:12;;;;;;;4.00;3.40;;;6.00;99.90;;;;;;5110194;28;20197;-72
2021/04/02 03:17:40;;;;;;;4.77;3.47;;;5.90;99.90;;;;;;5107553;28;20206;-72
2021/04/02 03:20:08;;;;;;;3.90;3.50;;;5.90;99.90;;;;;;5109536;28;20208;-72
2021/04/02 03:22:35;;;;;;;5.07;3.63;;;6.00;99.90;;;;;;5105349;27;20201;-73
2021/04/02 03:25:06;;;;;;;4.17;3.60;;;6.10;99.90;;;;;;5111406;28;20222;-73
2021/04/02 03:27:33;;;;;;;3.57;3.27;;;6.20;99.90;;;;;;5111661;28;20204;-67
2021/04/02 03:30:00;;;;;;;3.40;3.10;;;6.20;99.90;;;;;;5112983;28;20201;-67
2021/04/02 03:32:30;;;;;;;4.17;3.30;;;6.20;99.90;;;;;;5112080;28;20201;-67
2021/04/02 03:34:57;;;;;;;5.63;3.50;;;6.20;99.90;;;;;;5112486;28;20205;-67
2021/04/02 03:37:24;;;;;;;3.33;3.03;;;6.30;99.90;;;;;;5113304;28;20551;-67
2021/04/02 03:39:52;;;;;;;3.53;2.90;;;6.20;99.90;;;;;;5111176;28;20205;-67
2021/04/02 03:42:19;;;;;;;3.30;2.50;;;6.30;99.90;;;;;;5107356;27;20275;-67
2021/04/02 03:44:48;;;;;;;3.33;2.87;;;6.30;99.90;;;;;;5113205;28;20658;-67
2021/04/02 03:47:17;;;;;;;3.80;3.00;;;6.30;99.90;;;;;;5112192;28;20197;-67
2021/04/02 03:49:47;;;;;;;3.00;2.80;;;6.20;99.90;;;;;;5112011;28;20201;-67
2021/04/02 03:52:24;;;;;;;3.27;2.80;;;6.30;99.90;;;;;;5109231;28;20199;-67
2021/04/02 03:54:53;;;;;;;4.20;2.53;;;6.30;99.90;;;;;;5110621;28;20545;-67
2021/04/02 03:57:24;;;;;;;2.60;2.40;;;6.30;99.90;;;;;;5109208;28;20196;-66
2021/04/02 03:59:52;;;;;;;2.60;2.40;;;6.20;99.90;;;;;;5111888;28;20561;-67
2021/04/02 04:02:20;;;;;;;3.47;2.50;;;6.30;99.90;;;;;;5107537;28;20608;-67
2021/04/02 04:04:48;;;;;;;2.93;2.40;;;6.30;99.90;;;;;;5109509;28;20291;-67
2021/04/02 04:07:17;;;;;;;3.13;2.70;;;6.30;99.90;;;;;;5112943;28;20201;-67
2021/04/02 04:09:46;;;;;;;2.50;2.30;;;6.40;99.90;;;;;;5110208;28;20206;-67
2021/04/02 04:12:15;;;;;;;3.10;2.17;;;6.40;99.90;;;;;;5112069;28;20573;-67
2021/04/02 04:14:44;;;;;;;3.47;2.30;;;6.30;99.90;;;;;;5105050;28;20217;-67
2021/04/02 04:17:13;;;;;;;2.50;2.30;;;6.30;99.90;;;;;;5109186;28;20513;-67
2021/04/02 04:19:40;;;;;;;2.57;2.37;;;6.20;99.90;;;;;;5104827;28;20201;-67
2021/04/02 04:22:08;;;;;;;2.53;1.93;;;6.10;99.90;;;;;;5103741;28;20648;-67
2021/04/02 04:24:37;;;;;;;2.20;2.00;;;6.30;99.90;;;;;;5112410;28;20200;-67
2021/04/02 04:27:05;;;;;;;2.10;2.00;;;6.30;99.90;;;;;;5109141;28;20198;-67
2021/04/02 04:29:37;;;;;;;2.03;1.90;;;6.40;99.90;;;;;;5107434;28;20201;-67
2021/04/02 04:32:05;;;;;;;2.43;1.83;;;6.40;99.90;;;;;;5101701;28;20201;-67
2021/04/02 04:34:32;;;;;;;2.00;1.80;;;6.40;99.90;;;;;;5112671;28;20626;-67
2021/04/02 04:37:00;;;;;;;2.00;1.80;;;6.30;99.90;;;;;;5103902;28;20201;-67
2021/04/02 04:39:29;;;;;;;1.97;1.87;;;6.30;99.90;;;;;;5111611;28;20197;-67
2021/04/02 04:41:57;;;;;;;7.33;4.33;;;6.10;99.90;;;;;;5102252;28;20217;-67
2021/04/02 04:44:24;;;;;;;4.17;2.90;;;6.20;99.90;;;;;;5098156;28;20560;-67
2021/04/02 04:46:51;;;;;;;2.83;2.60;;;6.30;99.90;;;;;;5100867;28;20208;-67
2021/04/02 04:49:17;;;;;;;3.00;2.40;;;6.20;99.90;;;;;;5106465;28;20197;-67
2021/04/02 04:51:44;;;;;;;2.10;1.90;;;6.30;99.90;;;;;;5113195;28;20205;-67
2021/04/02 04:54:11;;;;;;;4.80;2.77;;;6.30;99.90;;;;;;5100307;28;20221;-67
2021/04/02 04:56:40;;;;;;;2.20;2.00;;;6.40;99.90;;;;;;5113682;28;20196;-67
2021/04/02 04:59:09;;;;;;;2.80;1.93;;;6.30;99.90;;;;;;5113537;28;20665;-67
2021/04/02 05:01:39;;;;;;;5.07;3.63;;;6.40;99.90;;;;;;5113830;28;20761;-67
2021/04/02 05:04:07;;;;;;;6.57;3.63;;;6.30;99.90;;;;;;5112897;28;20207;-67
2021/04/02 05:06:35;;;;;;;8.70;4.97;;;6.40;99.90;;;;;;5113578;28;20208;-67
2021/04/02 05:09:04;;;;;;;6.50;4.10;;;6.40;99.90;;;;;;5100621;28;20202;-67
2021/04/02 05:11:33;;;;;;;6.87;3.77;;;6.50;99.90;;;;;;5112177;28;20197;-67
2021/04/02 05:14:02;;;;;;;3.13;2.40;;;6.50;99.90;;;;;;5108466;28;20226;-67
2021/04/02 05:16:30;;;;;;;3.60;2.60;;;6.40;99.90;;;;;;5113370;28;20201;-67
2021/04/02 05:18:58;;;;;;;2.50;2.30;;;6.40;99.90;;;;;;5107497;28;20198;-67
2021/04/02 05:21:24;;;;;;;2.47;2.20;;;6.40;99.90;;;;;;5097308;28;20198;-67
2021/04/02 05:23:52;;;;;;;3.50;2.60;;;6.40;99.90;;;;;;5106113;28;20197;-68
2021/04/02 05:26:20;;;;;;;4.43;2.67;;;6.40;99.90;;;;;;5106433;28;20205;-67
2021/04/02 05:28:48;;;;;;;4.23;2.80;;;6.40;99.90;;;;;;5112210;28;20204;-67
2021/04/02 05:31:17;;;;;;;3.83;2.60;;;6.40;99.90;;;;;;5095576;28;20201;-67
2021/04/02 05:33:44;;;;;;;4.67;3.00;;;6.40;99.90;;;;;;5102979;28;20251;-67
2021/04/02 05:36:10;;;;;;;3.63;2.70;;;6.10;99.90;;;;;;5099388;28;20292;-67
2021/04/02 05:38:36;;;;;;;4.03;2.77;;;6.20;99.90;;;;;;5111187;28;20208;-67
2021/04/02 05:41:12;;;;;;;3.83;2.77;;;6.30;99.90;;;;;;5112957;28;20553;-67
2021/04/02 05:43:47;;;;;;;6.23;4.20;;;6.40;99.90;;;;;;5101853;28;20205;-67
2021/04/02 05:46:15;;;;;;;4.60;2.93;;;6.30;99.90;;;;;;5105627;28;20261;-67
2021/04/02 05:48:44;;;;;;;5.43;3.23;;;6.40;99.90;;;;;;5111293;28;20208;-67
2021/04/02 05:51:11;;;;;;;2.07;1.87;;;6.50;99.90;;;;;;5111562;28;20203;-67
2021/04/02 05:53:39;;;;;;;1.90;1.70;;;6.40;99.90;;;;;;5110319;28;20223;-67
2021/04/02 05:56:06;;;;;;;1.97;1.60;;;6.40;99.90;;;;;;5112107;28;20208;-67
2021/04/02 05:58:32;;;;;;;1.60;1.50;;;6.40;99.90;;;;;;5109214;28;20201;-67
2021/04/02 06:00:59;;;;;;;1.67;1.57;;;6.40;99.90;;;;;;5103457;28;20225;-67
2021/04/02 06:03:27;;;;;;;2.27;1.40;;;6.40;99.90;;;;;;5106729;28;20201;-67
2021/04/02 06:05:54;;;;;;;2.30;1.70;;;6.50;99.90;;;;;;5111521;28;20201;-67
2021/04/02 06:08:21;;;;;;;2.30;1.50;;;6.50;99.90;;;;;;5106831;28;20539;-67
2021/04/02 06:10:47;;;;;;;1.50;1.30;;;6.40;99.90;;;;;;5110949;28;20662;-67
2021/04/02 06:13:14;;;;;;;2.30;1.67;;;6.50;99.90;;;;;;5109683;28;20224;-67
2021/04/02 06:15:40;;;;;;;1.60;1.50;;;6.60;99.90;;;;;;5106793;28;20198;-67
2021/04/02 06:18:08;;;;;;;1.70;1.57;;;6.60;99.90;;;;;;5104808;28;20246;-67
2021/04/02 06:20:37;;;;;;;1.20;1.20;;;6.70;99.90;;;;;;5108916;28;20219;-67
2021/04/02 06:23:13;;;;;;;1.67;1.53;;;6.70;99.90;;;;;;5104838;28;20643;-67
2021/04/02 06:25:47;;;;;;;1.93;1.20;;;6.80;99.90;;;;;;5109016;28;20192;-67
2021/04/02 06:28:16;;;;;;;1.50;1.00;;;6.70;99.90;;;;;;5111203;28;20201;-67
2021/04/02 06:30:43;;;;;;;1.40;1.30;;;6.60;99.90;;;;;;5108233;28;20209;-67
2021/04/02 06:33:11;;;;;;;2.20;1.60;;;6.70;99.90;;;;;;5111287;28;20341;-67
2021/04/02 06:35:41;;;;;;;1.47;1.37;;;6.80;99.90;;;;;;5109043;28;20201;-67
2021/04/02 06:38:07;;;;;;;1.60;1.50;;;6.90;99.90;;;;;;5108344;28;20603;-67
2021/04/02 06:40:34;;;;;;;1.77;1.53;;;7.00;99.90;;;;;;5108424;28;20652;-68
2021/04/02 06:43:02;;;;;;;1.73;1.60;;;7.00;99.90;;;;;;5109845;28;20234;-67
2021/04/02 06:45:28;;;;;;;1.70;1.60;;;7.10;99.90;;;;;;5106489;28;20196;-67
2021/04/02 06:48:09;;;;;;;2.37;1.77;;;7.00;99.90;;;;;;5107625;28;20200;-68
2021/04/02 06:50:36;;;;;;;2.23;1.50;;;6.80;99.90;;;;;;5107032;28;20257;-67
2021/04/02 06:53:04;;;;;;;2.10;1.90;;;6.70;99.90;;;;;;5108677;28;20228;-67
2021/04/02 06:55:31;;;;;;;1.87;1.77;;;6.70;99.90;;;;;;5108462;28;20201;-68
2021/04/02 06:58:09;;;;;;;2.47;1.77;;;6.90;99.90;;;;;;5111301;28;20211;-67
2021/04/02 07:00:37;;;;;;;3.57;2.43;;;6.80;99.90;;;;;;5106179;28;20904;-67
2021/04/02 07:03:06;;;;;;;3.43;2.20;;;6.90;99.90;;;;;;5100505;28;20232;-67
2021/04/02 07:05:34;;;;;;;2.70;2.13;;;6.80;99.90;;;;;;5101894;28;20456;-67
2021/04/02 07:08:03;;;;;;;5.10;3.10;;;6.80;99.90;;;;;;5108386;28;20204;-67
2021/04/02 07:10:33;;;;;;;4.87;3.23;;;6.80;99.90;;;;;;5105640;28;20216;-67
2021/04/02 07:13:04;;;;;;;5.20;3.73;;;6.80;99.90;;;;;;5110774;28;20666;-67
2021/04/02 07:15:32;;;;;;;4.03;3.10;;;6.90;99.90;;;;;;5108163;28;20201;-67
2021/04/02 07:18:00;;;;;;;6.83;3.90;;;7.00;99.90;;;;;;5108663;28;20202;-67
2021/04/02 07:20:27;;;;;;;4.87;3.73;;;7.20;99.90;;;;;;5105406;28;20559;-67
2021/04/02 07:22:54;;;;;;;6.93;4.40;;;7.30;99.90;;;;;;5106651;28;20606;-67
2021/04/02 07:25:21;;;;;;;5.90;3.90;;;7.40;99.90;;;;;;5106124;28;20542;-67
2021/04/02 07:27:51;;;;;;;5.17;3.70;;;7.30;99.90;;;;;;5106255;28;20201;-67
2021/04/02 07:30:20;;;;;;;5.87;3.30;;;7.40;99.90;;;;;;5109190;28;20212;-68
2021/04/02 07:32:47;;;;;;;5.00;3.60;;;7.50;99.90;;;;;;5106302;28;20209;-67
2021/04/02 07:35:18;;;;;;;23.47;5.10;;;7.50;99.90;;;;;;5102788;28;20200;-67
2021/04/02 07:37:51;;;;;;;8.97;4.50;;;7.60;99.90;;;;;;5111964;28;20261;-67
2021/04/02 07:40:20;;;;;;;6.90;4.70;;;7.60;99.90;;;;;;5106269;28;20229;-67
2021/04/02 07:42:53;;;;;;;7.70;4.97;;;7.60;99.90;;;;;;5110038;28;20219;-67
2021/04/02 07:45:24;;;;;;;10.43;5.57;;;7.50;99.90;;;;;;5110845;28;20202;-68
2021/04/02 07:47:52;;;;;;;9.93;6.07;;;7.50;99.90;;;;;;5107922;28;20287;-67
2021/04/02 07:50:34;;;;;;;8.50;5.47;;;7.50;99.90;;;;;;5109368;28;20201;-67
2021/04/02 07:53:01;;;;;;;11.40;6.10;;;7.60;99.90;;;;;;5112784;28;20197;-67
2021/04/02 07:55:27;;;;;;;12.27;6.33;;;7.50;99.90;;;;;;5113475;28;20205;-67
2021/04/02 07:57:57;;;;;;;10.57;6.10;;;7.90;99.90;;;;;;5106123;28;20204;-67
2021/04/02 08:00:25;;;;;;;10.97;6.40;;;8.40;99.90;;;;;;5104988;28;20201;-67
2021/04/02 08:03:12;;;;;;;9.93;5.77;;;8.50;99.90;;;;;;5110853;28;20205;-67
2021/04/02 08:05:45;;;;;;;11.37;6.67;;;9.20;99.90;;;;;;5112222;28;20197;-68
2021/04/02 08:08:14;;;;;;;11.37;6.13;;;9.20;99.90;;;;;;5107973;28;20653;-67
2021/04/02 08:10:59;;;;;;;11.60;6.10;;;9.00;99.90;;;;;;5114046;28;20201;-67
2021/04/02 08:13:26;;;;;;;11.07;6.57;;;8.90;99.90;;;;;;5099522;28;20209;-67
2021/04/02 08:15:53;;;;;;;13.53;6.80;;;8.80;99.90;;;;;;5110462;28;20212;-67
2021/04/02 08:18:20;;;;;;;11.93;6.50;;;8.90;99.90;;;;;;5100113;28;20254;-67
2021/04/02 08:20:53;;;;;;;12.10;6.80;;;8.90;99.90;;;;;;5108524;28;20578;-67
2021/04/02 08:23:21;;;;;;;11.83;6.70;;;8.90;99.90;;;;;;5113962;28;20193;-67
2021/04/02 08:25:52;;;;;;;12.00;7.50;;;9.10;99.90;;;;;;5112948;28;20217;-67
2021/04/02 08:28:23;;;;;;;14.77;8.30;;;8.70;99.90;;;;;;5110341;28;20859;-67
2021/04/02 08:30:51;;;;;;;14.83;8.07;;;8.60;99.90;;;;;;5111118;28;20259;-67
2021/04/02 08:33:18;;;;;;;14.30;8.20;;;8.60;99.90;;;;;;5103588;28;20225;-68
2021/04/02 08:35:45;;;;;;;15.63;8.43;;;8.30;99.90;;;;;;5102109;28;20201;-67
2021/04/02 08:38:12;;;;;;;15.07;8.60;;;8.40;99.90;;;;;;5101248;28;20514;-67
2021/04/02 08:40:38;;;;;;;15.47;9.30;;;8.40;99.90;;;;;;5104087;28;20201;-68
2021/04/02 08:43:06;;;;;;;14.90;8.97;;;8.50;99.90;;;;;;5105385;28;20208;-68
2021/04/02 08:45:34;;;;;;;14.93;8.63;;;8.60;99.90;;;;;;5107654;28;20197;-67
2021/04/02 08:48:02;;;;;;;14.23;8.10;;;8.90;99.90;;;;;;5104233;28;20579;-68
2021/04/02 08:50:29;;;;;;;15.37;8.87;;;8.70;99.90;;;;;;5106561;28;20639;-67
2021/04/02 08:53:03;;;;;;;14.27;8.87;;;8.60;99.90;;;;;;5107973;28;20572;-68
2021/04/02 08:55:29;;;;;;;13.00;7.53;;;8.60;99.90;;;;;;5107112;28;20204;-67
2021/04/02 08:57:56;;;;;;;12.87;7.83;;;8.40;99.90;;;;;;5099050;28;20197;-67
2021/04/02 09:00:24;;;;;;;12.50;8.13;;;8.80;99.90;;;;;;5101895;28;20210;-68
2021/04/02 09:02:52;;;;;;;11.53;7.20;;;8.90;99.90;;;;;;5102366;28;20725;-67
2021/04/02 09:05:20;;;;;;;13.13;7.47;;;9.00;99.90;;;;;;5094419;28;20315;-67
2021/04/02 09:07:46;;;;;;;10.90;7.20;;;9.50;99.90;;;;;;5096212;28;20449;-67
2021/04/02 09:10:15;;;;;;;10.63;7.13;;;9.60;99.90;;;;;;5093905;28;20247;-68
2021/04/02 09:12:45;;;;;;;11.20;6.57;;;9.80;99.90;;;;;;5097623;28;20258;-68
2021/04/02 09:15:18;;;;;;;9.00;6.20;;;9.80;99.90;;;;;;5091809;28;20221;-68
2021/04/02 09:17:45;;;;;;;10.33;6.33;;;9.40;99.90;;;;;;5097437;28;20409;-67
2021/04/02 09:20:12;;;;;;;10.77;6.40;;;9.20;99.90;;;;;;5092603;28;20651;-68
2021/04/02 09:22:42;;;;;;;9.97;5.70;;;9.10;99.90;;;;;;5100109;28;20264;-67
2021/04/02 09:25:13;;;;;;;11.30;7.43;;;9.00;99.90;;;;;;5105506;28;20194;-68
2021/04/02 09:27:39;;;;;;;9.13;6.07;;;9.00;99.90;;;;;;5093276;28;20627;-67
2021/04/02 09:30:08;;;;;;;10.53;6.47;;;8.80;99.90;;;;;;5101581;28;20292;-68
2021/04/02 09:32:35;;;;;;;9.03;5.67;;;8.80;99.90;;;;;;5095132;28;20254;-68
2021/04/02 09:35:04;;;;;;;10.70;6.30;;;8.60;99.90;;;;;;5097608;28;20697;-68
2021/04/02 09:37:31;;;;;;;9.53;6.30;;;8.70;99.90;;;;;;5102305;28;20205;-68
2021/04/02 09:39:59;;;;;;;10.63;5.80;;;8.60;99.90;;;;;;5107606;28;20205;-67
2021/04/02 09:42:28;;;;;;;9.37;5.80;;;8.50;99.90;;;;;;5105925;28;20209;-68
2021/04/02 09:45:01;;;;;;;9.53;5.30;;;9.10;99.90;;;;;;5108645;28;20224;-68
2021/04/02 09:47:27;;;;;;;12.07;5.67;;;9.40;99.90;;;;;;5103600;28;20217;-67
2021/04/02 09:49:55;;;;;;;11.50;6.63;;;9.50;99.90;;;;;;5108986;28;20209;-68
2021/04/02 09:52:21;;;;;;;7.83;5.63;;;9.50;99.90;;;;;;5104554;28;20205;-68
2021/04/02 09:54:49;;;;;;;9.37;6.03;;;9.80;99.90;;;;;;5106465;28;20224;-67
2021/04/02 09:57:16;;;;;;;7.90;5.13;;;9.80;99.90;;;;;;5106862;28;20201;-68
2021/04/02 09:59:43;;;;;;;12.07;5.60;;;10.00;99.90;;;;;;5107462;28;20197;-67
2021/04/02 10:02:10;;;;;;;11.63;5.60;;;9.90;99.90;;;;;;5106411;28;20209;-68
2021/04/02 10:04:36;;;;;;;7.97;5.57;;;9.40;99.90;;;;;;5101889;28;20204;-68
2021/04/02 10:07:03;;;;;;;10.37;5.70;;;9.10;99.90;;;;;;5108196;28;20572;-67
2021/04/02 10:09:29;;;;;;;11.10;5.90;;;9.40;99.90;;;;;;5103019;28;20205;-68
2021/04/02 10:11:56;;;;;;;6.30;4.83;;;9.50;99.90;;;;;;5108861;28;20311;-67
2021/04/02 10:14:23;;;;;;;9.43;5.20;;;9.30;99.90;;;;;;5101533;28;20246;-68
2021/04/02 10:16:51;;;;;;;11.60;5.33;;;9.30;99.90;;;;;;5104211;28;20204;-67
2021/04/02 10:19:19;;;;;;;11.67;4.73;;;9.10;99.90;;;;;;5103250;28;20209;-68
2021/04/02 10:21:46;;;;;;;8.97;4.43;;;9.10;99.90;;;;;;5095387;28;20667;-67
2021/04/02 10:24:13;;;;;;;8.57;4.60;;;8.80;99.90;;;;;;5103987;28;20659;-68
2021/04/02 10:26:39;;;;;;;9.50;4.67;;;8.80;99.90;;;;;;5104028;28;20235;-67
2021/04/02 10:29:06;;;;;;;10.03;4.93;;;8.40;99.90;;;;;;5107789;28;20232;-67
2021/04/02 10:31:35;;;;;;;9.53;4.90;;;8.80;99.90;;;;;;5106274;28;20655;-68
2021/04/02 10:34:01;;;;;;;13.13;4.93;;;8.90;99.90;;;;;;5108327;28;20221;-67
2021/04/02 10:36:27;;;;;;;10.13;5.20;;;8.70;99.90;;;;;;5104434;28;20209;-68
2021/04/02 10:38:54;;;;;;;11.53;5.70;;;8.90;99.90;;;;;;5107417;28;20576;-67
2021/04/02 10:41:20;;;;;;;8.40;5.27;;;9.00;99.90;;;;;;5102425;28;20527;-68
2021/04/02 10:43:47;;;;;;;10.00;5.07;;;9.30;99.90;;;;;;5106677;28;20215;-68
2021/04/02 10:46:14;;;;;;;11.00;5.40;;;9.60;99.90;;;;;;5104609;28;20328;-67
2021/04/02 10:48:41;;;;;;;13.63;6.57;;;9.70;99.90;;;;;;5106861;28;20201;-68
2021/04/02 10:51:08;;;;;;;17.10;7.33;;;9.40;99.90;;;;;;5107434;28;20219;-68
2021/04/02 10:53:35;;;;;;;15.77;7.40;;;9.00;99.90;;;;;;5107188;28;20584;-67
2021/04/02 10:56:03;;;;;;;15.33;7.97;;;8.90;99.90;;;;;;5104901;28;20196;-68
2021/04/02 10:58:30;;;;;;;16.33;7.93;;;9.00;99.90;;;;;;5101131;28;20205;-67
2021/04/02 11:00:57;;;;;;;16.07;8.50;;;9.00;99.90;;;;;;5101221;28;20217;-68
2021/04/02 11:03:23;;;;;;;14.17;7.17;;;9.20;99.90;;;;;;5101625;28;20220;-68
2021/04/02 11:05:50;;;;;;;11.90;5.80;;;9.50;99.90;;;;;;5102466;28;20201;-67
2021/04/02 11:08:17;;;;;;;15.53;7.00;;;9.40;99.90;;;;;;5103910;28;20223;-67
2021/04/02 11:10:43;;;;;;;14.90;6.90;;;9.50;99.90;;;;;;5105709;28;20245;-68
2021/04/02 11:13:10;;;;;;;13.13;5.70;;;8.80;99.90;;;;;;5107454;28;20300;-68
2021/04/02 11:15:36;;;;;;;11.03;5.73;;;8.70;99.90;;;;;;5106387;28;20246;-67
2021/04/02 11:18:03;;;;;;;10.63;5.23;;;8.80;99.90;;;;;;5109579;28;20273;-67
2021/04/02 11:20:30;;;;;;;10.23;4.73;;;8.90;99.90;;;;;;5104536;28;20292;-68
2021/04/02 11:23:00;;;;;;;12.30;5.20;;;8.70;99.90;;;;;;5104714;28;20213;-67
2021/04/02 11:25:27;;;;;;;8.33;4.77;;;8.40;99.90;;;;;;5109622;28;20570;-68
2021/04/02 11:27:54;;;;;;;11.07;4.60;;;8.70;99.90;;;;;;5110999;28;20240;-67
2021/04/02 11:30:22;;;;;;;11.10;4.40;;;8.70;99.90;;;;;;5105767;28;20556;-67
2021/04/02 11:32:49;;;;;;;11.17;4.57;;;8.50;99.90;;;;;;5111681;28;20209;-68
2021/04/02 11:35:17;;;;;;;10.63;5.37;;;8.60;99.90;;;;;;5107413;28;20216;-67
2021/04/02 11:37:43;;;;;;;8.50;4.50;;;8.90;99.90;;;;;;5111097;28;20262;-67
2021/04/02 11:40:14;;;;;;;7.83;4.10;;;8.80;99.90;;;;;;5109904;28;20205;-67
2021/04/02 11:42:41;;;;;;;11.07;4.67;;;8.60;99.90;;;;;;5107832;28;20213;-67
2021/04/02 11:45:09;;;;;;;9.37;4.17;;;8.70;99.90;;;;;;5108355;28;20212;-68
2021/04/02 11:47:35;;;;;;;7.53;4.20;;;8.40;99.90;;;;;;5106023;28;20216;-73
2021/04/02 11:50:01;;;;;;;8.20;4.37;;;8.40;99.90;;;;;;5100589;28;20208;-73
2021/04/02 11:52:28;;;;;;;9.03;4.60;;;8.30;99.90;;;;;;5101659;28;20205;-73
2021/04/02 11:54:54;;;;;;;8.63;6.10;;;8.20;99.90;;;;;;5105606;28;20221;-72
2021/04/02 11:57:21;;;;;;;10.00;4.37;;;8.30;99.90;;;;;;5108237;28;20260;-72
2021/04/02 11:59:48;;;;;;;8.10;4.47;;;8.70;99.90;;;;;;5097213;28;20304;-72
2021/04/02 12:02:14;;;;;;;9.03;4.60;;;8.60;99.90;;;;;;5101230;28;20288;-73
2021/04/02 12:04:40;;;;;;;8.73;4.50;;;8.30;99.90;;;;;;5106315;28;20559;-72
2021/04/02 12:07:07;;;;;;;6.20;4.37;;;8.20;99.90;;;;;;5111072;28;20208;-73
2021/04/02 12:09:33;;;;;;;9.60;4.53;;;8.10;99.90;;;;;;5109478;28;20675;-72
2021/04/02 12:11:59;;;;;;;10.30;4.03;;;8.20;99.90;;;;;;5104703;28;20215;-72
2021/04/02 12:14:27;;;;;;;7.47;4.43;;;8.50;99.90;;;;;;5105428;28;20240;-73
2021/04/02 12:16:53;;;;;;;7.73;4.00;;;8.60;99.90;;;;;;5110586;28;20207;-73
2021/04/02 12:19:20;;;;;;;10.20;3.90;;;8.70;99.90;;;;;;5105978;28;20227;-73
2021/04/02 12:21:47;;;;;;;7.53;3.93;;;8.40;99.90;;;;;;5107129;28;20208;-73
2021/04/02 12:24:13;;;;;;;8.53;4.43;;;8.30;99.90;;;;;;5100389;28;20256;-73
2021/04/02 12:26:40;;;;;;;9.90;4.63;;;8.20;99.90;;;;;;5109855;28;20212;-73
2021/04/02 12:29:07;;;;;;;7.67;3.80;;;8.50;99.90;;;;;;5109515;28;20212;-73
2021/04/02 12:31:34;;;;;;;8.63;3.87;;;8.50;99.90;;;;;;5110141;28;20216;-73
2021/04/02 12:34:01;;;;;;;9.10;3.80;;;8.60;99.90;;;;;;5103608;28;20221;-72
2021/04/02 12:36:28;;;;;;;7.73;3.70;;;8.30;99.90;;;;;;5107375;28;20213;-73
2021/04/02 12:38:54;;;;;;;11.90;4.50;;;8.50;99.90;;;;;;5104083;28;20265;-73
2021/04/02 12:41:20;;;;;;;9.60;3.80;;;8.40;99.90;;;;;;5109046;28;20215;-72
2021/04/02 12:43:47;;;;;;;9.67;3.80;;;8.40;99.90;;;;;;5105890;28;20288;-73
2021/04/02 12:46:13;;;;;;;11.40;4.07;;;8.50;99.90;;;;;;5107902;28;20286;-72
2021/04/02 12:48:40;;;;;;;12.33;5.00;;;8.60;99.90;;;;;;5107874;28;20205;-73
2021/04/02 12:51:07;;;;;;;9.77;4.30;;;8.60;99.90;;;;;;5101786;28;20212;-73
2021/04/02 12:53:34;;;;;;;12.60;4.40;;;8.60;99.90;;;;;;5107299;28;20205;-72
2021/04/02 12:56:01;;;;;;;10.97;3.67;;;8.60;99.90;;;;;;5103877;28;20201;-73
2021/04/02 12:58:28;;;;;;;8.93;3.37;;;8.80;99.90;;;;;;5103049;28;20674;-73
2021/04/02 13:00:54;;;;;;;12.37;3.50;;;8.80;99.90;;;;;;5108862;28;20208;-73